createdAt,value
2023-05-22T00:00:44.757Z,998.06
2023-05-22T00:01:44.742Z,998.10
2023-05-22T00:02:44.858Z,998.05
2023-05-22T00:03:44.709Z,998.06
2023-05-22T00:04:44.784Z,998.10
2023-05-22T00:05:44.690Z,998.09
2023-05-22T00:06:44.673Z,998.07
2023-05-22T00:07:44.670Z,998.06
2023-05-22T00:08:44.649Z,998.06
2023-05-22T00:09:44.645Z,998.05
2023-05-22T00:10:44.632Z,998.05
2023-05-22T00:11:44.620Z,998.02
2023-05-22T00:12:44.627Z,998.03
2023-05-22T00:13:44.579Z,998.07
2023-05-22T00:14:44.595Z,998.04
2023-05-22T00:15:44.555Z,998.04
2023-05-22T00:16:44.589Z,998.05
2023-05-22T00:17:44.650Z,998.08
2023-05-22T00:18:44.557Z,998.05
2023-05-22T00:19:44.512Z,998.03
2023-05-22T00:20:44.494Z,998.01
2023-05-22T00:21:44.515Z,998.03
2023-05-22T00:22:44.483Z,997.97
2023-05-22T00:23:44.453Z,998.00
2023-05-22T00:24:44.441Z,998.01
2023-05-22T00:25:44.419Z,997.99
2023-05-22T00:26:44.435Z,997.97
2023-05-22T00:27:44.389Z,997.98
2023-05-22T00:28:44.383Z,997.99
2023-05-22T00:29:44.369Z,997.96
2023-05-22T00:30:44.368Z,997.94
2023-05-22T00:31:44.372Z,997.95
2023-05-22T00:32:44.363Z,997.94
2023-05-22T00:33:44.328Z,997.93
2023-05-22T00:34:44.398Z,997.94
2023-05-22T00:35:44.297Z,997.94
2023-05-22T00:36:44.297Z,997.93
2023-05-22T00:37:44.263Z,997.96
2023-05-22T00:38:44.267Z,997.93
2023-05-22T00:39:44.245Z,997.92
2023-05-22T00:40:44.236Z,997.92
2023-05-22T00:41:44.254Z,997.93
2023-05-22T00:42:44.209Z,997.93
2023-05-22T00:43:44.204Z,997.92
2023-05-22T00:44:44.175Z,997.90
2023-05-22T00:45:44.155Z,997.90
2023-05-22T00:46:44.228Z,997.90
2023-05-22T00:47:44.197Z,997.94
2023-05-22T00:48:44.132Z,997.94
2023-05-22T00:49:44.105Z,997.91
2023-05-22T00:50:44.111Z,997.94
2023-05-22T00:51:44.097Z,997.94
2023-05-22T00:52:44.077Z,997.94
2023-05-22T00:53:44.054Z,997.94
2023-05-22T00:54:44.052Z,997.96
2023-05-22T00:55:44.056Z,997.94
2023-05-22T00:56:44.073Z,998.00
2023-05-22T00:57:44.009Z,997.98
2023-05-22T00:58:43.996Z,997.97
2023-05-22T00:59:43.976Z,997.97
2023-05-22T01:00:43.998Z,997.99
2023-05-22T01:01:44.085Z,997.95
2023-05-22T01:02:44.074Z,997.96
2023-05-22T01:03:43.998Z,997.95
2023-05-22T01:04:43.909Z,997.98
2023-05-22T01:05:43.907Z,997.95
2023-05-22T01:06:43.884Z,997.95
2023-05-22T01:07:43.885Z,997.97
2023-05-22T01:08:43.875Z,997.93
2023-05-22T01:09:43.853Z,997.97
2023-05-22T01:10:43.858Z,997.97
2023-05-22T01:11:43.817Z,997.95
2023-05-22T01:12:43.809Z,997.99
2023-05-22T01:13:43.788Z,997.96
2023-05-22T01:14:43.775Z,997.96
2023-05-22T01:15:43.795Z,997.91
2023-05-22T01:16:43.868Z,997.92
2023-05-22T01:17:43.813Z,997.89
2023-05-22T01:18:43.778Z,997.95
2023-05-22T01:19:43.746Z,997.95
2023-05-22T01:20:43.721Z,997.92
2023-05-22T01:21:43.712Z,997.96
2023-05-22T01:22:43.683Z,997.93
2023-05-22T01:23:43.673Z,997.90
2023-05-22T01:24:43.667Z,997.89
2023-05-22T01:25:43.628Z,997.92
2023-05-22T01:26:43.640Z,997.86
2023-05-22T01:27:43.610Z,997.92
2023-05-22T01:28:43.604Z,997.93
2023-05-22T01:29:43.600Z,997.95
2023-05-22T01:30:43.566Z,997.90
2023-05-22T01:31:43.550Z,997.99
2023-05-22T01:32:43.607Z,997.99
2023-05-22T01:33:43.596Z,998.00
2023-05-22T01:34:43.542Z,998.00
2023-05-22T01:35:43.493Z,997.97
2023-05-22T01:36:43.487Z,998.00
2023-05-22T01:37:43.472Z,998.00
2023-05-22T01:38:43.474Z,998.00
2023-05-22T01:39:43.462Z,998.00
2023-05-22T01:40:43.427Z,997.95
2023-05-22T01:41:43.412Z,997.98
2023-05-22T01:42:43.399Z,997.96
2023-05-22T01:43:43.432Z,997.96
2023-05-22T01:44:43.393Z,997.99
2023-05-22T01:45:43.404Z,998.00
2023-05-22T01:46:43.363Z,998.00
2023-05-22T01:47:43.374Z,998.01
2023-05-22T01:48:43.356Z,998.03
2023-05-22T01:49:43.352Z,998.01
2023-05-22T01:50:43.304Z,998.02
2023-05-22T01:51:43.305Z,998.06
2023-05-22T01:52:43.276Z,998.06
2023-05-22T01:53:43.303Z,998.06
2023-05-22T01:54:43.249Z,998.05
2023-05-22T01:55:43.247Z,998.07
2023-05-22T01:56:43.215Z,998.07
2023-05-22T01:57:43.227Z,998.07
2023-05-22T01:58:43.230Z,998.09
2023-05-22T01:59:43.184Z,998.10
2023-05-22T02:00:43.166Z,998.07
2023-05-22T02:01:43.256Z,998.07
2023-05-22T02:02:43.271Z,998.05
2023-05-22T02:03:43.201Z,998.03
2023-05-22T02:04:43.095Z,998.06
2023-05-22T02:05:43.128Z,998.05
2023-05-22T02:06:43.083Z,998.02
2023-05-22T02:07:43.100Z,998.01
2023-05-22T02:08:43.034Z,998.02
2023-05-22T02:09:43.042Z,998.00
2023-05-22T02:10:43.037Z,997.99
2023-05-22T02:11:43.017Z,997.99
2023-05-22T02:12:43.008Z,998.00
2023-05-22T02:13:42.995Z,998.00
2023-05-22T02:14:43.042Z,998.01
2023-05-22T02:15:43.053Z,997.98
2023-05-22T02:16:42.948Z,997.99
2023-05-22T02:17:43.065Z,997.99
2023-05-22T02:18:42.952Z,997.97
2023-05-22T02:19:42.922Z,997.97
2023-05-22T02:20:42.892Z,997.92
2023-05-22T02:21:42.882Z,998.01
2023-05-22T02:22:42.878Z,998.00
2023-05-22T02:23:42.866Z,997.98
2023-05-22T02:24:42.860Z,998.01
2023-05-22T02:25:42.846Z,998.02
2023-05-22T02:26:42.835Z,997.99
2023-05-22T02:27:42.846Z,998.04
2023-05-22T02:28:42.781Z,997.98
2023-05-22T02:29:42.771Z,998.01
2023-05-22T02:30:42.761Z,997.99
2023-05-22T02:31:42.812Z,998.01
2023-05-22T02:32:42.811Z,998.02
2023-05-22T02:33:42.725Z,997.97
2023-05-22T02:34:42.706Z,998.00
2023-05-22T02:35:42.709Z,997.96
2023-05-22T02:36:42.703Z,998.00
2023-05-22T02:37:42.677Z,997.97
2023-05-22T02:38:42.657Z,997.95
2023-05-22T02:39:42.649Z,997.97
2023-05-22T02:40:42.705Z,997.98
2023-05-22T02:41:42.637Z,997.95
2023-05-22T02:42:42.620Z,997.96
2023-05-22T02:43:42.612Z,997.98
2023-05-22T02:44:42.583Z,997.93
2023-05-22T02:45:42.558Z,997.93
2023-05-22T02:46:42.601Z,997.92
2023-05-22T02:47:42.560Z,997.94
2023-05-22T02:48:42.518Z,997.93
2023-05-22T02:49:42.524Z,997.97
2023-05-22T02:50:42.490Z,997.93
2023-05-22T02:51:42.498Z,997.94
2023-05-22T02:52:42.474Z,997.93
2023-05-22T02:53:42.470Z,997.99
2023-05-22T02:54:42.436Z,997.99
2023-05-22T02:55:42.445Z,997.97
2023-05-22T02:56:42.429Z,997.97
2023-05-22T02:57:42.397Z,997.95
2023-05-22T02:58:42.382Z,997.98
2023-05-22T02:59:42.397Z,997.94
2023-05-22T03:00:42.400Z,997.95
2023-05-22T03:01:42.407Z,997.94
2023-05-22T03:02:42.351Z,997.96
2023-05-22T03:03:42.420Z,997.91
2023-05-22T03:04:42.310Z,997.93
2023-05-22T03:05:42.306Z,997.94
2023-05-22T03:06:42.269Z,997.99
2023-05-22T03:07:42.360Z,997.98
2023-05-22T03:08:42.248Z,997.95
2023-05-22T03:09:42.259Z,997.98
2023-05-22T03:10:42.296Z,997.95
2023-05-22T03:11:42.230Z,997.94
2023-05-22T03:12:42.251Z,997.92
2023-05-22T03:13:42.186Z,997.93
2023-05-22T03:14:42.237Z,997.91
2023-05-22T03:15:42.157Z,997.90
2023-05-22T03:16:42.213Z,997.92
2023-05-22T03:17:42.167Z,997.97
2023-05-22T03:18:42.117Z,997.97
2023-05-22T03:19:42.125Z,997.96
2023-05-22T03:20:42.216Z,997.94
2023-05-22T03:21:42.090Z,997.94
2023-05-22T03:22:42.067Z,997.95
2023-05-22T03:23:42.049Z,997.92
2023-05-22T03:24:42.048Z,997.92
2023-05-22T03:25:42.037Z,997.90
2023-05-22T03:26:42.063Z,997.91
2023-05-22T03:27:42.005Z,997.93
2023-05-22T03:28:42.007Z,997.93
2023-05-22T03:29:41.995Z,997.94
2023-05-22T03:30:42.167Z,997.92
2023-05-22T03:31:41.960Z,997.96
2023-05-22T03:32:41.956Z,997.95
2023-05-22T03:33:41.966Z,997.93
2023-05-22T03:34:41.914Z,997.93
2023-05-22T03:35:41.895Z,997.96
2023-05-22T03:36:41.891Z,997.93
2023-05-22T03:37:41.883Z,997.96
2023-05-22T03:38:41.872Z,997.97
2023-05-22T03:39:41.864Z,998.00
2023-05-22T03:40:42.051Z,998.03
2023-05-22T03:41:41.837Z,998.04
2023-05-22T03:42:41.812Z,998.06
2023-05-22T03:43:44.781Z,998.00
2023-05-22T03:44:41.771Z,998.04
2023-05-22T03:45:41.789Z,998.02
2023-05-22T03:46:41.764Z,998.02
2023-05-22T03:47:41.791Z,998.07
2023-05-22T03:48:41.744Z,998.03
2023-05-22T03:49:41.726Z,998.07
2023-05-22T03:50:41.933Z,998.04
2023-05-22T03:51:41.685Z,998.06
2023-05-22T03:52:41.692Z,998.04
2023-05-22T03:53:41.661Z,998.04
2023-05-22T03:54:41.648Z,998.04
2023-05-22T03:55:41.633Z,998.03
2023-05-22T03:56:41.610Z,998.01
2023-05-22T03:57:41.618Z,998.01
2023-05-22T03:58:41.595Z,997.98
2023-05-22T03:59:41.575Z,997.98
2023-05-22T04:00:41.557Z,997.97
2023-05-22T04:01:41.572Z,997.99
2023-05-22T04:02:41.627Z,997.95
2023-05-22T04:03:41.576Z,997.95
2023-05-22T04:04:41.574Z,997.98
2023-05-22T04:05:41.528Z,998.00
2023-05-22T04:06:41.501Z,998.00
2023-05-22T04:07:41.471Z,997.97
2023-05-22T04:08:41.450Z,997.99
2023-05-22T04:09:41.550Z,997.97
2023-05-22T04:10:41.614Z,997.98
2023-05-22T04:11:41.415Z,997.99
2023-05-22T04:12:41.410Z,998.00
2023-05-22T04:13:41.390Z,998.00
2023-05-22T04:14:41.365Z,997.98
2023-05-22T04:15:41.386Z,997.96
2023-05-22T04:16:41.364Z,997.98
2023-05-22T04:17:41.388Z,998.02
2023-05-22T04:18:41.315Z,998.04
2023-05-22T04:19:41.301Z,998.02
2023-05-22T04:20:41.452Z,998.02
2023-05-22T04:21:41.299Z,998.06
2023-05-22T04:22:41.373Z,998.04
2023-05-22T04:23:41.250Z,998.03
2023-05-22T04:24:41.257Z,998.04
2023-05-22T04:25:41.255Z,998.06
2023-05-22T04:26:42.572Z,998.06
2023-05-22T04:27:41.200Z,998.06
2023-05-22T04:28:41.182Z,998.08
2023-05-22T04:29:41.176Z,998.06
2023-05-22T04:30:41.326Z,998.07
2023-05-22T04:31:41.256Z,998.08
2023-05-22T04:32:41.200Z,998.07
2023-05-22T04:33:41.107Z,998.10
2023-05-22T04:34:41.123Z,998.12
2023-05-22T04:35:41.136Z,998.11
2023-05-22T04:36:41.082Z,998.11
2023-05-22T04:37:41.150Z,998.11
2023-05-22T04:38:41.066Z,998.12
2023-05-22T04:39:41.076Z,998.14
2023-05-22T04:40:41.207Z,998.13
2023-05-22T04:41:41.025Z,998.12
2023-05-22T04:42:41.020Z,998.11
2023-05-22T04:43:40.987Z,998.12
2023-05-22T04:44:40.971Z,998.18
2023-05-22T04:45:40.975Z,998.18
2023-05-22T04:46:40.984Z,998.19
2023-05-22T04:47:40.996Z,998.19
2023-05-22T04:48:40.915Z,998.20
2023-05-22T04:49:40.929Z,998.19
2023-05-22T04:50:41.241Z,998.25
2023-05-22T04:51:40.886Z,998.22
2023-05-22T04:52:40.868Z,998.20
2023-05-22T04:53:40.860Z,998.23
2023-05-22T04:54:40.850Z,998.26
2023-05-22T04:55:40.858Z,998.24
2023-05-22T04:56:40.811Z,998.23
2023-05-22T04:57:40.819Z,998.23
2023-05-22T04:58:40.773Z,998.24
2023-05-22T04:59:40.781Z,998.25
2023-05-22T05:00:41.009Z,998.28
2023-05-22T05:01:40.786Z,998.22
2023-05-22T05:02:40.777Z,998.24
2023-05-22T05:03:40.778Z,998.24
2023-05-22T05:04:40.717Z,998.23
2023-05-22T05:05:40.714Z,998.26
2023-05-22T05:06:40.679Z,998.23
2023-05-22T05:07:40.689Z,998.25
2023-05-22T05:08:40.665Z,998.29
2023-05-22T05:09:40.661Z,998.29
2023-05-22T05:10:40.889Z,998.32
2023-05-22T05:11:40.617Z,998.30
2023-05-22T05:12:40.595Z,998.32
2023-05-22T05:13:40.613Z,998.34
2023-05-22T05:14:40.586Z,998.29
2023-05-22T05:15:40.579Z,998.30
2023-05-22T05:16:40.632Z,998.33
2023-05-22T05:17:40.553Z,998.34
2023-05-22T05:18:40.549Z,998.30
2023-05-22T05:19:40.551Z,998.33
2023-05-22T05:20:40.654Z,998.33
2023-05-22T05:21:40.467Z,998.32
2023-05-22T05:22:40.496Z,998.28
2023-05-22T05:23:40.488Z,998.34
2023-05-22T05:24:40.462Z,998.36
2023-05-22T05:25:40.428Z,998.30
2023-05-22T05:26:40.400Z,998.29
2023-05-22T05:27:40.410Z,998.27
2023-05-22T05:28:40.390Z,998.24
2023-05-22T05:29:40.392Z,998.23
2023-05-22T05:30:40.735Z,998.25
2023-05-22T05:31:40.365Z,998.22
2023-05-22T05:32:40.422Z,998.25
2023-05-22T05:33:40.336Z,998.21
2023-05-22T05:34:40.315Z,998.25
2023-05-22T05:35:42.698Z,998.29
2023-05-22T05:36:40.286Z,998.28
2023-05-22T05:37:40.291Z,998.27
2023-05-22T05:38:40.234Z,998.25
2023-05-22T05:39:40.251Z,998.24
2023-05-22T05:40:40.475Z,998.23
2023-05-22T05:41:40.241Z,998.27
2023-05-22T05:42:40.184Z,998.25
2023-05-22T05:43:40.184Z,998.21
2023-05-22T05:44:40.178Z,998.25
2023-05-22T05:45:40.171Z,998.24
2023-05-22T05:46:40.195Z,998.27
2023-05-22T05:47:40.153Z,998.23
2023-05-22T05:48:40.097Z,998.26
2023-05-22T05:49:40.106Z,998.24
2023-05-22T05:50:40.361Z,998.24
2023-05-22T05:51:40.096Z,998.26
2023-05-22T05:52:40.072Z,998.23
2023-05-22T05:53:40.043Z,998.27
2023-05-22T05:54:40.032Z,998.31
2023-05-22T05:55:40.041Z,998.32
2023-05-22T05:56:40.015Z,998.33
2023-05-22T05:57:40.006Z,998.30
2023-05-22T05:58:39.983Z,998.33
2023-05-22T05:59:39.981Z,998.30
2023-05-22T06:00:40.338Z,998.30
2023-05-22T06:01:39.956Z,998.33
2023-05-22T06:02:40.040Z,998.34
2023-05-22T06:03:40.030Z,998.35
2023-05-22T06:04:39.908Z,998.32
2023-05-22T06:05:39.937Z,998.33
2023-05-22T06:06:39.883Z,998.33
2023-05-22T06:07:39.970Z,998.30
2023-05-22T06:08:39.864Z,998.35
2023-05-22T06:09:39.860Z,998.35
2023-05-22T06:10:40.144Z,998.33
2023-05-22T06:11:39.821Z,998.32
2023-05-22T06:12:39.813Z,998.31
2023-05-22T06:13:39.787Z,998.29
2023-05-22T06:14:39.794Z,998.32
2023-05-22T06:15:39.766Z,998.34
2023-05-22T06:16:39.820Z,998.32
2023-05-22T06:17:39.771Z,998.33
2023-05-22T06:18:39.740Z,998.33
2023-05-22T06:19:39.733Z,998.33
2023-05-22T06:20:39.983Z,998.34
2023-05-22T06:21:39.694Z,998.35
2023-05-22T06:22:39.659Z,998.38
2023-05-22T06:23:39.649Z,998.38
2023-05-22T06:24:39.642Z,998.35
2023-05-22T06:25:39.706Z,998.38
2023-05-22T06:26:39.628Z,998.37
2023-05-22T06:27:39.609Z,998.40
2023-05-22T06:28:39.616Z,998.42
2023-05-22T06:29:39.591Z,998.42
2023-05-22T06:30:40.510Z,998.45
2023-05-22T06:31:39.587Z,998.45
2023-05-22T06:32:39.792Z,998.43
2023-05-22T06:33:39.622Z,998.45
2023-05-22T06:34:39.535Z,998.44
2023-05-22T06:35:39.498Z,998.45
2023-05-22T06:36:39.496Z,998.44
2023-05-22T06:37:39.479Z,998.43
2023-05-22T06:38:39.530Z,998.42
2023-05-22T06:39:39.447Z,998.45
2023-05-22T06:40:39.716Z,998.45
2023-05-22T06:41:39.924Z,998.43
2023-05-22T06:42:39.427Z,998.41
2023-05-22T06:43:39.421Z,998.43
2023-05-22T06:44:39.383Z,998.46
2023-05-22T06:45:39.381Z,998.42
2023-05-22T06:46:39.559Z,998.45
2023-05-22T06:47:39.404Z,998.46
2023-05-22T06:48:39.348Z,998.47
2023-05-22T06:49:39.315Z,998.46
2023-05-22T06:50:39.512Z,998.47
2023-05-22T06:51:39.353Z,998.49
2023-05-22T06:52:39.304Z,998.48
2023-05-22T06:53:39.282Z,998.46
2023-05-22T06:54:39.252Z,998.50
2023-05-22T06:55:39.249Z,998.49
2023-05-22T06:56:39.224Z,998.51
2023-05-22T06:57:39.241Z,998.54
2023-05-22T06:58:39.203Z,998.49
2023-05-22T06:59:39.183Z,998.51
2023-05-22T07:00:39.603Z,998.54
2023-05-22T07:01:39.232Z,998.54
2023-05-22T07:02:39.198Z,998.56
2023-05-22T07:03:39.131Z,998.53
2023-05-22T07:04:39.144Z,998.57
2023-05-22T07:05:39.158Z,998.50
2023-05-22T07:06:39.335Z,998.57
2023-05-22T07:07:39.086Z,998.56
2023-05-22T07:08:39.073Z,998.52
2023-05-22T07:09:39.050Z,998.53
2023-05-22T07:10:39.319Z,998.51
2023-05-22T07:11:39.044Z,998.54
2023-05-22T07:12:39.021Z,998.55
2023-05-22T07:13:39.002Z,998.49
2023-05-22T07:14:39.032Z,998.52
2023-05-22T07:15:38.980Z,998.49
2023-05-22T07:16:39.044Z,998.49
2023-05-22T07:17:39.001Z,998.49
2023-05-22T07:18:38.949Z,998.49
2023-05-22T07:19:38.939Z,998.51
2023-05-22T07:20:39.079Z,998.49
2023-05-22T07:21:38.918Z,998.46
2023-05-22T07:22:38.891Z,998.48
2023-05-22T07:23:38.860Z,998.47
2023-05-22T07:24:38.977Z,998.46
2023-05-22T07:25:38.857Z,998.44
2023-05-22T07:26:38.855Z,998.45
2023-05-22T07:27:38.824Z,998.48
2023-05-22T07:28:38.815Z,998.46
2023-05-22T07:29:38.797Z,998.44
2023-05-22T07:30:39.102Z,998.47
2023-05-22T07:31:38.784Z,998.45
2023-05-22T07:32:38.799Z,998.42
2023-05-22T07:33:38.728Z,998.47
2023-05-22T07:34:38.756Z,998.51
2023-05-22T07:35:38.731Z,998.47
2023-05-22T07:36:38.772Z,998.46
2023-05-22T07:37:38.702Z,998.49
2023-05-22T07:38:38.666Z,998.45
2023-05-22T07:39:38.669Z,998.42
2023-05-22T07:40:38.887Z,998.42
2023-05-22T07:41:38.628Z,998.45
2023-05-22T07:42:38.627Z,998.43
2023-05-22T07:43:38.598Z,998.45
2023-05-22T07:44:38.710Z,998.43
2023-05-22T07:45:38.729Z,998.41
2023-05-22T07:46:38.669Z,998.42
2023-05-22T07:47:38.584Z,998.45
2023-05-22T07:48:38.541Z,998.45
2023-05-22T07:49:38.544Z,998.44
2023-05-22T07:50:38.513Z,998.44
2023-05-22T07:51:38.488Z,998.43
2023-05-22T07:52:38.500Z,998.43
2023-05-22T07:53:38.472Z,998.42
2023-05-22T07:54:38.519Z,998.44
2023-05-22T07:55:38.509Z,998.43
2023-05-22T07:56:38.431Z,998.42
2023-05-22T07:57:38.425Z,998.43
2023-05-22T07:58:38.422Z,998.47
2023-05-22T07:59:38.406Z,998.44
2023-05-22T08:00:38.376Z,998.45
2023-05-22T08:01:38.354Z,998.45
2023-05-22T08:02:38.433Z,998.45
2023-05-22T08:03:38.488Z,998.45
2023-05-22T08:04:38.486Z,998.44
2023-05-22T08:05:38.338Z,998.48
2023-05-22T08:06:38.491Z,998.48
2023-05-22T08:07:38.288Z,998.43
2023-05-22T08:08:38.277Z,998.47
2023-05-22T08:09:38.253Z,998.45
2023-05-22T08:11:39.733Z,998.46
2023-05-22T08:12:38.220Z,998.48
2023-05-22T08:13:38.217Z,998.47
2023-05-22T08:14:38.181Z,998.42
2023-05-22T08:15:38.166Z,998.42
2023-05-22T08:16:38.175Z,998.42
2023-05-22T08:17:38.238Z,998.44
2023-05-22T08:18:38.146Z,998.40
2023-05-22T08:19:38.200Z,998.42
2023-05-22T08:20:38.370Z,998.42
2023-05-22T08:21:38.085Z,998.44
2023-05-22T08:22:38.103Z,998.41
2023-05-22T08:23:38.070Z,998.45
2023-05-22T08:24:38.062Z,998.43
2023-05-22T08:25:38.044Z,998.38
2023-05-22T08:26:38.029Z,998.37
2023-05-22T08:27:38.067Z,998.39
2023-05-22T08:28:38.001Z,998.39
2023-05-22T08:29:38.003Z,998.36
2023-05-22T08:30:38.167Z,998.37
2023-05-22T08:31:37.970Z,998.35
2023-05-22T08:32:38.057Z,998.34
2023-05-22T08:33:37.928Z,998.39
2023-05-22T08:34:37.917Z,998.33
2023-05-22T08:35:37.895Z,998.31
2023-05-22T08:36:37.883Z,998.31
2023-05-22T08:37:37.886Z,998.33
2023-05-22T08:38:37.863Z,998.33
2023-05-22T08:39:37.844Z,998.35
2023-05-22T08:40:38.099Z,998.34
2023-05-22T08:41:37.832Z,998.32
2023-05-22T08:42:37.818Z,998.32
2023-05-22T08:43:37.825Z,998.32
2023-05-22T08:44:37.817Z,998.31
2023-05-22T08:45:37.764Z,998.33
2023-05-22T08:46:37.848Z,998.31
2023-05-22T08:47:37.789Z,998.31
2023-05-22T08:48:37.742Z,998.32
2023-05-22T08:49:37.749Z,998.27
2023-05-22T08:50:37.923Z,998.26
2023-05-22T08:51:37.712Z,998.30
2023-05-22T08:52:37.671Z,998.30
2023-05-22T08:53:37.656Z,998.26
2023-05-22T08:54:37.681Z,998.29
2023-05-22T08:55:37.646Z,998.31
2023-05-22T08:56:45.582Z,998.27
2023-05-22T08:57:38.601Z,998.27
2023-05-22T08:58:37.698Z,998.23
2023-05-22T08:59:37.566Z,998.22
2023-05-22T09:00:37.789Z,998.15
2023-05-22T09:01:37.761Z,998.19
2023-05-22T09:02:37.609Z,998.20
2023-05-22T09:03:37.550Z,998.15
2023-05-22T09:04:37.528Z,998.20
2023-05-22T09:05:37.521Z,998.19
2023-05-22T09:06:37.494Z,998.19
2023-05-22T09:07:37.460Z,998.20
2023-05-22T09:08:37.460Z,998.21
2023-05-22T09:09:37.456Z,998.21
2023-05-22T09:10:37.713Z,998.21
2023-05-22T09:11:37.413Z,998.21
2023-05-22T09:12:37.407Z,998.22
2023-05-22T09:13:37.419Z,998.24
2023-05-22T09:14:37.379Z,998.23
2023-05-22T09:15:37.419Z,998.22
2023-05-22T09:16:37.406Z,998.23
2023-05-22T09:17:37.368Z,998.27
2023-05-22T09:18:37.332Z,998.25
2023-05-22T09:19:37.503Z,998.25
2023-05-22T09:20:37.493Z,998.21
2023-05-22T09:21:37.275Z,998.24
2023-05-22T09:22:37.271Z,998.24
2023-05-22T09:23:37.265Z,998.20
2023-05-22T09:24:37.267Z,998.21
2023-05-22T09:25:37.225Z,998.24
2023-05-22T09:26:37.230Z,998.24
2023-05-22T09:27:37.216Z,998.27
2023-05-22T09:28:37.201Z,998.26
2023-05-22T09:29:37.203Z,998.24
2023-05-22T09:30:37.267Z,998.24
2023-05-22T09:31:37.192Z,998.26
2023-05-22T09:32:37.173Z,998.23
2023-05-22T09:33:37.160Z,998.26
2023-05-22T09:34:37.119Z,998.27
2023-05-22T09:35:37.103Z,998.29
2023-05-22T09:36:37.091Z,998.24
2023-05-22T09:37:37.070Z,998.31
2023-05-22T09:38:37.081Z,998.28
2023-05-22T09:39:37.053Z,998.28
2023-05-22T09:40:37.139Z,998.27
2023-05-22T09:41:37.026Z,998.28
2023-05-22T09:42:37.019Z,998.25
2023-05-22T09:43:37.020Z,998.26
2023-05-22T09:44:36.981Z,998.27
2023-05-22T09:45:36.966Z,998.27
2023-05-22T09:46:37.033Z,998.32
2023-05-22T09:47:36.990Z,998.29
2023-05-22T09:48:36.940Z,998.29
2023-05-22T09:49:36.902Z,998.25
2023-05-22T09:50:37.044Z,998.21
2023-05-22T09:51:36.906Z,998.26
2023-05-22T09:52:36.895Z,998.24
2023-05-22T09:53:36.910Z,998.23
2023-05-22T09:54:36.854Z,998.26
2023-05-22T09:55:36.889Z,998.26
2023-05-22T09:56:39.945Z,998.26
2023-05-22T09:57:36.818Z,998.23
2023-05-22T09:58:37.091Z,998.23
2023-05-22T09:59:36.811Z,998.24
2023-05-22T10:00:36.759Z,998.22
2023-05-22T10:01:36.819Z,998.25
2023-05-22T10:02:37.320Z,998.26
2023-05-22T10:03:36.719Z,998.28
2023-05-22T10:04:36.813Z,998.25
2023-05-22T10:05:36.697Z,998.27
2023-05-22T10:06:36.703Z,998.28
2023-05-22T10:07:36.687Z,998.22
2023-05-22T10:08:36.690Z,998.25
2023-05-22T10:09:36.640Z,998.26
2023-05-22T10:10:36.647Z,998.26
2023-05-22T10:11:36.615Z,998.31
2023-05-22T10:12:36.605Z,998.28
2023-05-22T10:13:36.586Z,998.24
2023-05-22T10:14:36.599Z,998.28
2023-05-22T10:15:36.569Z,998.27
2023-05-22T10:16:36.597Z,998.26
2023-05-22T10:17:36.550Z,998.23
2023-05-22T10:18:36.538Z,998.18
2023-05-22T10:19:37.744Z,998.18
2023-05-22T10:20:36.537Z,998.20
2023-05-22T10:21:36.495Z,998.20
2023-05-22T10:22:36.476Z,998.16
2023-05-22T10:23:36.451Z,998.15
2023-05-22T10:24:36.443Z,998.16
2023-05-22T10:25:36.440Z,998.17
2023-05-22T10:26:36.417Z,998.15
2023-05-22T10:27:36.404Z,998.15
2023-05-22T10:28:36.408Z,998.15
2023-05-22T10:29:36.492Z,998.10
2023-05-22T10:30:36.381Z,998.08
2023-05-22T10:31:37.157Z,998.10
2023-05-22T10:32:36.380Z,998.08
2023-05-22T10:33:36.375Z,998.09
2023-05-22T10:34:36.301Z,998.06
2023-05-22T10:35:36.312Z,998.02
2023-05-22T10:36:36.296Z,998.04
2023-05-22T10:37:36.272Z,998.05
2023-05-22T10:38:36.288Z,998.04
2023-05-22T10:39:36.245Z,997.98
2023-05-22T10:40:36.457Z,997.96
2023-05-22T10:41:36.241Z,997.95
2023-05-22T10:42:36.203Z,997.93
2023-05-22T10:43:36.213Z,997.94
2023-05-22T10:44:36.190Z,997.94
2023-05-22T10:45:36.187Z,997.92
2023-05-22T10:46:36.192Z,997.91
2023-05-22T10:47:36.187Z,997.91
2023-05-22T10:48:36.127Z,997.83
2023-05-22T10:49:36.136Z,997.85
2023-05-22T10:50:36.128Z,997.80
2023-05-22T10:51:36.090Z,997.81
2023-05-22T10:52:36.064Z,997.79
2023-05-22T10:53:36.072Z,997.80
2023-05-22T10:54:36.067Z,997.81
2023-05-22T10:55:36.039Z,997.79
2023-05-22T10:56:36.055Z,997.79
2023-05-22T10:57:36.042Z,997.82
2023-05-22T10:58:35.997Z,997.85
2023-05-22T10:59:36.004Z,997.81
2023-05-22T11:00:35.967Z,997.85
2023-05-22T11:01:36.065Z,997.82
2023-05-22T11:02:35.998Z,997.78
2023-05-22T11:03:35.940Z,997.81
2023-05-22T11:04:35.988Z,997.80
2023-05-22T11:05:35.918Z,997.80
2023-05-22T11:06:35.935Z,997.82
2023-05-22T11:07:35.878Z,997.83
2023-05-22T11:08:35.858Z,997.80
2023-05-22T11:09:35.879Z,997.83
2023-05-22T11:10:35.830Z,997.84
2023-05-22T11:11:35.824Z,997.82
2023-05-22T11:12:35.808Z,997.80
2023-05-22T11:13:35.816Z,997.78
2023-05-22T11:14:35.797Z,997.77
2023-05-22T11:15:35.768Z,997.80
2023-05-22T11:16:35.802Z,997.80
2023-05-22T11:17:35.790Z,997.77
2023-05-22T11:18:35.758Z,997.81
2023-05-22T11:19:35.749Z,997.74
2023-05-22T11:20:35.712Z,997.82
2023-05-22T11:21:35.694Z,997.83
2023-05-22T11:22:35.689Z,997.76
2023-05-22T11:23:35.692Z,997.77
2023-05-22T11:24:35.853Z,997.72
2023-05-22T11:25:35.643Z,997.73
2023-05-22T11:26:35.626Z,997.71
2023-05-22T11:27:35.685Z,997.71
2023-05-22T11:28:35.620Z,997.71
2023-05-22T11:29:35.605Z,997.67
2023-05-22T11:30:35.586Z,997.70
2023-05-22T11:31:35.605Z,997.67
2023-05-22T11:32:35.587Z,997.61
2023-05-22T11:33:35.531Z,997.66
2023-05-22T11:34:35.775Z,997.63
2023-05-22T11:35:35.515Z,997.67
2023-05-22T11:36:35.509Z,997.63
2023-05-22T11:37:35.530Z,997.61
2023-05-22T11:38:35.467Z,997.62
2023-05-22T11:39:35.468Z,997.62
2023-05-22T11:40:35.452Z,997.58
2023-05-22T11:41:35.461Z,997.61
2023-05-22T11:42:35.432Z,997.58
2023-05-22T11:43:35.420Z,997.58
2023-05-22T11:44:35.394Z,997.54
2023-05-22T11:45:35.377Z,997.54
2023-05-22T11:46:35.390Z,997.48
2023-05-22T11:47:35.387Z,997.48
2023-05-22T11:48:35.336Z,997.46
2023-05-22T11:49:35.318Z,997.46
2023-05-22T11:51:36.335Z,997.42
2023-05-22T11:52:35.287Z,997.40
2023-05-22T11:53:35.278Z,997.37
2023-05-22T11:54:37.758Z,997.37
2023-05-22T11:55:35.255Z,997.29
2023-05-22T11:56:35.240Z,997.34
2023-05-22T11:57:35.216Z,997.34
2023-05-22T11:58:35.216Z,997.32
2023-05-22T11:59:35.185Z,997.34
2023-05-22T12:00:35.252Z,997.34
2023-05-22T12:01:35.183Z,997.29
2023-05-22T12:02:35.296Z,997.28
2023-05-22T12:03:35.361Z,997.30
2023-05-22T12:04:35.133Z,997.30
2023-05-22T12:05:35.137Z,997.26
2023-05-22T12:06:35.151Z,997.28
2023-05-22T12:07:35.098Z,997.24
2023-05-22T12:08:35.105Z,997.24
2023-05-22T12:09:35.065Z,997.24
2023-05-22T12:10:35.070Z,997.22
2023-05-22T12:11:35.051Z,997.27
2023-05-22T12:12:35.015Z,997.22
2023-05-22T12:13:35.010Z,997.24
2023-05-22T12:14:35.019Z,997.17
2023-05-22T12:15:34.990Z,997.21
2023-05-22T12:16:35.083Z,997.21
2023-05-22T12:17:34.981Z,997.16
2023-05-22T12:18:34.936Z,997.15
2023-05-22T12:19:35.001Z,997.21
2023-05-22T12:20:34.904Z,997.21
2023-05-22T12:21:34.911Z,997.19
2023-05-22T12:22:34.879Z,997.19
2023-05-22T12:23:34.861Z,997.18
2023-05-22T12:24:34.879Z,997.17
2023-05-22T12:25:34.900Z,997.16
2023-05-22T12:26:34.834Z,997.13
2023-05-22T12:27:36.618Z,997.14
2023-05-22T12:28:34.798Z,997.14
2023-05-22T12:29:34.833Z,997.11
2023-05-22T12:30:34.794Z,997.13